This is the latest recevied weather packets stored in our database for station/object EA7AZH-5. If no packets are shown the sender has not sent any weather packets the latest 10 day(s).
| Time | Temp. | Humidity | Pressure | Rain* | Wind** | Luminosity | Snow |
|---|---|---|---|---|---|---|---|
| 1777836228 | 22.22° C | 58% | 1011.6 hPa | - | - | - | - |
| 1777830827 | 24.44° C | 49% | 1011.4 hPa | - | - | - | - |
| 1777818826 | 25° C | 53% | 1012.9 hPa | - | - | - | - |
| 1777815226 | 23.89° C | 56% | 1013.5 hPa | - | - | - | - |
| 1777814626 | 24.44° C | 53% | 1013.6 hPa | - | - | - | - |
| 1777813431 | 23.89° C | 55% | 1013.8 hPa | - | - | - | - |
| 1777810425 | 24.44° C | 53% | 1014.2 hPa | - | - | - | - |
| 1777806225 | 25° C | 50% | 1014.7 hPa | - | - | - | - |
| 1777805025 | 25° C | 51% | 1014.9 hPa | - | - | - | - |
| 1777804425 | 25.56° C | 50% | 1014.7 hPa | - | - | - | - |
| 1777803825 | 26.11° C | 48% | 1014.6 hPa | - | - | - | - |
| 1777803225 | 25.56° C | 50% | 1014.8 hPa | - | - | - | - |
| 1777797225 | 23.33° C | 56% | 1014.5 hPa | - | - | - | - |
| 1777796025 | 23.33° C | 56% | 1014.5 hPa | - | - | - | - |
| 1777788825 | 22.78° C | 56% | 1013.9 hPa | - | - | - | - |
| 1777788225 | 22.22° C | 57% | 1013.9 hPa | - | - | - | - |
| 1777787625 | 22.78° C | 56% | 1013.7 hPa | - | - | - | - |
| 1777786424 | 22.22° C | 56% | 1013.2 hPa | - | - | - | - |
| 1777782224 | 22.78° C | 56% | 1013.6 hPa | - | - | - | - |
| 1777778029 | 22.78° C | 56% | 1013.8 hPa | - | - | - | - |
| 1777777424 | 22.78° C | 55% | 1013.9 hPa | - | - | - | - |
| 1777776824 | 22.78° C | 56% | 1013.9 hPa | - | - | - | - |
| 1777775024 | 22.78° C | 56% | 1014.1 hPa | - | - | - | - |
| 1777770224 | 22.78° C | 56% | 1014.4 hPa | - | - | - | - |
| 1777766024 | 22.78° C | 57% | 1015.3 hPa | - | - | - | - |
* Rain since midnight (hover to see other rain measurements)
** Current wind speed in m/s (hover to see current wind gust speed)